createdAt,value
2023-01-29T00:02:42.734Z,-1.20
2023-01-29T00:07:44.468Z,-1.20
2023-01-29T00:12:46.175Z,-1.20
2023-01-29T00:17:47.924Z,-1.20
2023-01-29T00:22:49.768Z,-1.20
2023-01-29T00:27:51.909Z,-1.30
2023-01-29T00:32:54.026Z,-1.30
2023-01-29T00:37:56.428Z,-1.40
2023-01-29T00:43:16.821Z,-1.30
2023-01-29T00:48:18.621Z,-1.30
2023-01-29T00:53:20.332Z,-1.40
2023-01-29T00:58:22.450Z,-1.30
2023-01-29T01:03:24.307Z,-1.40
2023-01-29T01:08:44.789Z,-1.50
2023-01-29T01:13:46.762Z,-1.50
2023-01-29T01:18:48.504Z,-1.50
2023-01-29T01:23:51.997Z,-1.60
2023-01-29T01:28:54.241Z,-1.50
2023-01-29T01:33:56.079Z,-1.50
2023-01-29T01:38:58.349Z,-1.50
2023-01-29T01:44:02.562Z,-1.50
2023-01-29T01:49:09.705Z,-1.50
2023-01-29T01:54:23.784Z,-1.50
2023-01-29T01:59:25.693Z,-1.50
2023-01-29T02:04:45.900Z,-1.50
2023-01-29T02:10:05.958Z,-1.60
2023-01-29T02:15:08.205Z,-1.60
2023-01-29T02:20:27.285Z,-1.60
2023-01-29T02:25:53.569Z,-1.60
2023-01-29T02:31:06.921Z,-1.60
2023-01-29T02:36:53.540Z,-1.50
2023-01-29T02:42:16.650Z,-1.50
2023-01-29T02:47:30.682Z,-1.40
2023-01-29T02:52:44.555Z,-1.50
2023-01-29T02:57:48.751Z,-1.60
2023-01-29T03:03:09.293Z,-1.60
2023-01-29T03:08:16.193Z,-1.60
2023-01-29T03:13:22.491Z,-1.70
2023-01-29T03:18:30.604Z,-1.60
2023-01-29T03:23:54.631Z,-1.70
2023-01-29T03:29:15.518Z,-1.60
2023-01-29T03:34:28.563Z,-1.60
2023-01-29T03:39:31.080Z,-1.60
2023-01-29T03:44:49.075Z,-1.50
2023-01-29T03:50:23.921Z,-1.50
2023-01-29T03:55:40.280Z,-1.50
2023-01-29T04:00:52.974Z,-1.60
2023-01-29T04:06:10.587Z,-1.60
2023-01-29T04:11:22.425Z,-1.70
2023-01-29T04:16:33.243Z,-1.60
2023-01-29T04:21:57.448Z,-1.60
2023-01-29T04:27:10.729Z,-1.50
2023-01-29T04:32:30.621Z,-1.60
2023-01-29T04:37:54.442Z,-1.50
2023-01-29T04:43:08.116Z,-1.50
2023-01-29T04:48:22.150Z,-1.50
2023-01-29T04:53:37.046Z,-1.50
2023-01-29T04:58:47.135Z,-1.50
2023-01-29T05:03:51.516Z,-1.50
2023-01-29T05:08:55.484Z,-1.50
2023-01-29T05:13:57.737Z,-1.50
2023-01-29T05:18:59.464Z,-1.50
2023-01-29T05:24:20.462Z,-1.50
2023-01-29T05:29:22.834Z,-1.50
2023-01-29T05:34:24.619Z,-1.50
2023-01-29T05:39:26.431Z,-1.60
2023-01-29T05:44:28.202Z,-1.70
2023-01-29T05:49:30.158Z,-1.70
2023-01-29T05:54:31.886Z,-1.80
2023-01-29T05:59:33.678Z,-1.80
2023-01-29T06:04:35.552Z,-1.80
2023-01-29T06:09:37.293Z,-1.90
2023-01-29T06:14:39.090Z,-1.90
2023-01-29T06:19:40.853Z,-1.80
2023-01-29T06:24:42.638Z,-1.90
2023-01-29T06:29:44.350Z,-1.90
2023-01-29T06:34:48.621Z,-1.90
2023-01-29T06:39:51.425Z,-1.90
2023-01-29T06:44:56.505Z,-1.90
2023-01-29T06:49:58.269Z,-1.80
2023-01-29T06:55:00.013Z,-1.80
2023-01-29T07:00:01.782Z,-1.80
2023-01-29T07:05:03.739Z,-1.80
2023-01-29T07:10:06.089Z,-1.80
2023-01-29T07:15:08.494Z,-1.80
2023-01-29T07:20:11.002Z,-1.80
2023-01-29T07:25:12.820Z,-1.70
2023-01-29T07:30:15.172Z,-1.80
2023-01-29T07:35:17.256Z,-1.70
2023-01-29T07:40:19.222Z,-1.70
2023-01-29T07:45:20.949Z,-1.60
2023-01-29T07:50:24.581Z,-1.60
2023-01-29T07:55:26.470Z,-1.50
2023-01-29T08:00:29.212Z,-1.50
2023-01-29T08:05:30.960Z,-1.50
2023-01-29T08:10:33.027Z,-1.40
2023-01-29T08:15:37.175Z,-1.30
2023-01-29T08:20:40.576Z,-1.30
2023-01-29T08:25:42.405Z,-1.30
2023-01-29T08:30:44.564Z,-1.30
2023-01-29T08:35:50.828Z,-1.20
2023-01-29T08:40:52.577Z,-1.10
2023-01-29T08:45:54.390Z,-1.10
2023-01-29T08:51:03.022Z,-1.10
2023-01-29T08:56:05.118Z,-1.00
2023-01-29T09:01:11.974Z,-1.00
2023-01-29T09:06:14.872Z,-0.90
2023-01-29T09:11:16.632Z,-0.90
2023-01-29T09:16:18.460Z,-0.90
2023-01-29T09:21:20.200Z,-0.80
2023-01-29T09:26:21.982Z,-0.80
2023-01-29T09:31:23.868Z,-0.90
2023-01-29T09:36:25.804Z,-0.80
2023-01-29T09:41:58.242Z,-0.80
2023-01-29T09:47:04.153Z,-0.80
2023-01-29T09:52:26.028Z,-0.70
2023-01-29T09:57:44.980Z,-0.60
2023-01-29T10:03:10.993Z,-0.60
2023-01-29T10:08:32.060Z,-0.50
2023-01-29T10:14:16.930Z,-0.50
2023-01-29T10:19:56.331Z,-0.40
2023-01-29T10:25:02.940Z,-0.40
2023-01-29T10:30:11.695Z,-0.40
2023-01-29T10:35:18.631Z,-0.40
2023-01-29T10:40:21.674Z,-0.40
2023-01-29T10:46:03.989Z,-0.40
2023-01-29T10:51:32.433Z,-0.40
2023-01-29T10:57:00.237Z,-0.40
2023-01-29T11:02:03.337Z,-0.40
2023-01-29T11:07:05.254Z,-0.30
2023-01-29T11:12:32.106Z,-0.20
2023-01-29T11:17:33.856Z,-0.10
2023-01-29T11:22:35.618Z,-0.10
2023-01-29T11:27:46.062Z,-0.10
2023-01-29T11:32:58.873Z,-0.10
2023-01-29T11:38:21.398Z,0.00
2023-01-29T11:43:31.086Z,0.00
2023-01-29T11:48:44.107Z,-0.10
2023-01-29T11:53:52.331Z,0.00
2023-01-29T11:58:55.817Z,-0.10
2023-01-29T12:03:57.704Z,-0.20
2023-01-29T12:09:02.377Z,-0.10
2023-01-29T12:14:21.974Z,-0.20
2023-01-29T12:19:34.063Z,-0.30
2023-01-29T12:24:46.374Z,-0.20
2023-01-29T12:30:06.244Z,-0.30
2023-01-29T12:35:18.118Z,-0.30
2023-01-29T12:40:24.993Z,-0.40
2023-01-29T12:45:28.176Z,-0.40
2023-01-29T12:50:34.786Z,-0.40
2023-01-29T12:55:44.706Z,-0.30
2023-01-29T13:00:50.810Z,-0.30
2023-01-29T13:05:55.704Z,-0.30
2023-01-29T13:11:00.820Z,-0.20
2023-01-29T13:16:07.431Z,-0.10
2023-01-29T13:21:16.094Z,-0.20
2023-01-29T13:26:20.223Z,-0.30
2023-01-29T13:31:33.275Z,-0.30
2023-01-29T13:36:37.700Z,-0.30
2023-01-29T13:41:42.463Z,-0.20
2023-01-29T13:46:50.008Z,-0.20
2023-01-29T13:51:51.832Z,-0.20
2023-01-29T13:56:59.265Z,-0.20
2023-01-29T14:02:04.002Z,-0.30
2023-01-29T14:07:39.294Z,-0.30
2023-01-29T14:12:42.415Z,-0.30
2023-01-29T14:17:59.687Z,-0.20
2023-01-29T14:23:04.141Z,-0.30
2023-01-29T14:28:16.335Z,-0.30
2023-01-29T14:33:45.162Z,-0.30
2023-01-29T14:38:51.083Z,-0.30
2023-01-29T14:44:32.803Z,-0.30
2023-01-29T14:49:54.294Z,-0.20
2023-01-29T14:55:01.749Z,-0.20
2023-01-29T15:00:07.169Z,-0.20
2023-01-29T15:05:17.298Z,-0.30
2023-01-29T15:10:23.325Z,-0.30
2023-01-29T15:15:42.540Z,-0.20
2023-01-29T15:20:44.567Z,-0.30
2023-01-29T15:25:52.263Z,-0.40
2023-01-29T15:30:56.144Z,-0.30
2023-01-29T15:36:08.725Z,-0.40
2023-01-29T15:41:19.133Z,-0.50
2023-01-29T15:46:26.608Z,-0.50
2023-01-29T15:51:28.971Z,-0.40
2023-01-29T15:56:36.074Z,-0.40
2023-01-29T16:01:37.864Z,-0.40
2023-01-29T16:06:41.573Z,-0.40
2023-01-29T16:11:43.934Z,-0.50
2023-01-29T16:16:48.410Z,-0.50
2023-01-29T16:22:10.477Z,-0.50
2023-01-29T16:27:14.828Z,-0.50
2023-01-29T16:32:18.151Z,-0.50
2023-01-29T16:37:25.187Z,-0.50
2023-01-29T16:42:29.174Z,-0.50
2023-01-29T16:47:41.139Z,-0.50
2023-01-29T16:53:00.742Z,-0.60
2023-01-29T16:58:24.692Z,-0.60
2023-01-29T17:03:28.720Z,-0.60
2023-01-29T17:08:33.221Z,-0.50
2023-01-29T17:13:42.592Z,-0.60
2023-01-29T17:18:44.324Z,-0.50
2023-01-29T17:23:46.174Z,-0.50
2023-01-29T17:28:51.221Z,-0.50
2023-01-29T17:33:53.016Z,-0.50
2023-01-29T17:38:54.759Z,-0.40
2023-01-29T17:43:56.630Z,-0.40
2023-01-29T17:48:58.394Z,-0.40
2023-01-29T17:54:00.129Z,-0.50
2023-01-29T17:59:01.992Z,-0.50
2023-01-29T18:04:04.077Z,-0.50
2023-01-29T18:09:06.074Z,-0.50
2023-01-29T18:14:13.738Z,-0.50
2023-01-29T18:19:23.196Z,-0.60
2023-01-29T18:24:26.536Z,-0.60
2023-01-29T18:29:30.293Z,-0.50
2023-01-29T18:34:32.163Z,-0.50
2023-01-29T18:39:33.877Z,-0.60
2023-01-29T18:44:35.661Z,-0.60
2023-01-29T18:49:39.116Z,-0.60
2023-01-29T18:54:40.881Z,-0.70
2023-01-29T18:59:42.697Z,-0.70
2023-01-29T19:04:46.415Z,-0.60
2023-01-29T19:09:48.433Z,-0.50
2023-01-29T19:14:50.208Z,-0.50
2023-01-29T19:19:52.057Z,-0.50
2023-01-29T19:24:54.269Z,-0.50
2023-01-29T19:29:57.869Z,-0.60
2023-01-29T19:34:59.610Z,-0.50
2023-01-29T19:40:01.563Z,-0.60
2023-01-29T19:45:04.986Z,-0.60
2023-01-29T19:50:08.355Z,-0.60
2023-01-29T19:55:10.245Z,-0.60
2023-01-29T20:00:12.675Z,-0.70
2023-01-29T20:05:18.331Z,-0.60
2023-01-29T20:10:21.262Z,-0.60
2023-01-29T20:15:23.002Z,-0.60
2023-01-29T20:20:27.686Z,-0.60
2023-01-29T20:25:35.577Z,-0.60
2023-01-29T20:30:38.284Z,-0.60
2023-01-29T20:35:40.274Z,-0.60
2023-01-29T20:40:41.991Z,-0.60
2023-01-29T20:45:43.759Z,-0.60
2023-01-29T20:50:45.690Z,-0.70
2023-01-29T20:55:47.453Z,-0.60
2023-01-29T21:00:49.548Z,-0.60
2023-01-29T21:05:52.189Z,-0.60
2023-01-29T21:10:54.158Z,-0.50
2023-01-29T21:15:55.890Z,-0.60
2023-01-29T21:20:57.685Z,-0.50
2023-01-29T21:26:04.841Z,-0.50
2023-01-29T21:31:10.115Z,-0.50
2023-01-29T21:36:12.335Z,-0.50
2023-01-29T21:41:14.183Z,-0.50
2023-01-29T21:46:16.181Z,-0.50
2023-01-29T21:51:18.963Z,-0.50
2023-01-29T21:56:20.912Z,-0.60
2023-01-29T22:01:37.882Z,-0.50
2023-01-29T22:06:40.389Z,-0.60
2023-01-29T22:11:42.110Z,-0.60
2023-01-29T22:16:45.262Z,-0.60
2023-01-29T22:21:47.082Z,-0.70
2023-01-29T22:26:49.619Z,-0.60
2023-01-29T22:31:51.674Z,-0.60
2023-01-29T22:36:53.777Z,-0.60
2023-01-29T22:41:55.502Z,-0.60
2023-01-29T22:46:57.210Z,-0.60
2023-01-29T22:52:11.028Z,-0.50
2023-01-29T22:57:14.846Z,-0.60
2023-01-29T23:02:16.590Z,-0.50
2023-01-29T23:07:18.337Z,-0.50
2023-01-29T23:12:20.118Z,-0.50
2023-01-29T23:17:22.010Z,-0.50
2023-01-29T23:22:23.928Z,-0.60
2023-01-29T23:27:25.714Z,-0.50
2023-01-29T23:32:27.438Z,-0.50
2023-01-29T23:37:29.205Z,-0.50
2023-01-29T23:42:30.977Z,-0.50
2023-01-29T23:47:32.696Z,-0.50
2023-01-29T23:52:34.439Z,-0.50
2023-01-29T23:57:36.277Z,-0.50
